Alatyr, Russia
Current Conditions -  °F | °C
As of 4:00 AM on Saturday 20 Dec 2014 (Local Time) from UWLW Reporting Station
Overcast Overcast  
Wind Chill: 16°   Ceiling: 1500
Heat Index: 27°   Visibility: 3mi
Dew Point: 25°   Wind: 11mph
Humidity: 93%   Direction: 170°S
Pressure: 29.83"   Gusts: NA
Location:  54.85°N, 46.6°E
Report Text: UWLW 200100Z 17005MPS P5000 OVC015 M03/M04 Q1010 20850345 NOSIGRMK QFE751
Loading
Personal Weather Stations






























Interactive Weather Map New forecast layout! Learn more

10-Day Weather Forecast

Advertisements
Track Severe Weather on mobile